PWSweather.com
Personal Weather Stations
Station Observations
IRIVIRED2
île Maurice, Petit RaffrayMU

île MauricePetit RaffrayMU

Lat: -20.02533, Lon: 57.61883

Elevation: 183

Station Type: Davis Vantage Pro2 plus

http://www.meteomauritius.altervista.org

High Low Average
Temperature 77.6°F25.3°F 68.8°F20.4°F 72.7°F22.6°F
Dew Point 70.9°F21.6°F 63.0°F17.2°F 67.1°F19.5°F
Winds 10.4 mph SE16.7 mph SE Calm Calm 4.5 mph 7.2 mph
Wind Gusts 21.9 mph35.2 mph -- 7.8 mph12.6 mph
Humidity 95% 72% 83%
Pressure 30.17 in1021.70 in 30.07 in1018.30 in -
Precipitation 0.16 in4.10 in - -
Hour Temp Dew Point Humidity Winds Wind Gusts Pressure Precip Precip Rate Daily Precip Total
12:00 AM 71.1°F21.7°C 67.7°F19.8°C 89% 3.5 mph SE5.6 kmh SE 3.5 mph5.6 kmh 30.09 in1019.0 mb - 0.00 in0.0 mm 0.00 in0.0 mm
12:10 AM 71.1°F21.7°C 68.0°F20.0°C 90% 2.3 mph SE3.7 kmh SE 3.5 mph5.6 kmh 30.09 in1019.0 mb - 0.00 in0.0 mm 0.00 in0.0 mm
12:20 AM 71.2°F21.8°C 67.8°F19.9°C 89% 3.5 mph ESE5.6 kmh ESE 4.6 mph7.4 kmh 30.09 in1019.0 mb - 0.00 in0.0 mm 0.00 in0.0 mm
12:30 AM 71.4°F21.9°C 68.0°F20.0°C 89% 2.3 mph SE3.7 kmh SE 3.5 mph5.6 kmh 30.09 in1019.0 mb - 0.00 in0.0 mm 0.00 in0.0 mm
12:40 AM 71.6°F22.0°C 68.2°F20.1°C 89% 2.3 mph SE3.7 kmh SE 5.8 mph9.3 kmh 30.09 in1019.0 mb - 0.00 in0.0 mm 0.00 in0.0 mm
12:50 AM 71.7°F22.1°C 68.3°F20.2°C 89% 2.3 mph SE3.7 kmh SE 5.8 mph9.3 kmh 30.09 in1019.0 mb - 0.00 in0.0 mm 0.00 in0.0 mm
01:00 AM 71.7°F22.1°C 68.3°F20.2°C 89% 3.5 mph SE5.6 kmh SE 6.9 mph11.1 kmh 30.09 in1019.0 mb - 0.00 in0.0 mm 0.00 in0.0 mm
01:10 AM 71.5°F21.9°C 68.1°F20.1°C 89% 4.6 mph SE7.4 kmh SE 4.6 mph7.4 kmh 30.09 in1019.0 mb - 0.00 in0.0 mm 0.00 in0.0 mm
01:20 AM 71.0°F21.7°C 67.6°F19.8°C 89% 2.3 mph SE3.7 kmh SE 5.8 mph9.3 kmh 30.09 in1019.0 mb - 0.00 in0.0 mm 0.00 in0.0 mm
01:30 AM 70.7°F21.5°C 67.6°F19.8°C 90% 3.5 mph SE5.6 kmh SE 4.6 mph7.4 kmh 30.08 in1018.6 mb - 0.00 in0.0 mm 0.00 in0.0 mm
01:40 AM 70.7°F21.5°C 67.3°F19.6°C 89% 3.5 mph SSE5.6 kmh SSE 4.6 mph7.4 kmh 30.08 in1018.6 mb - 0.00 in0.0 mm 0.00 in0.0 mm
01:50 AM 70.7°F21.5°C 67.3°F19.6°C 89% 3.5 mph SE5.6 kmh SE 5.8 mph9.3 kmh 30.08 in1018.6 mb - 0.00 in0.0 mm 0.00 in0.0 mm
02:00 AM 70.7°F21.5°C 67.3°F19.6°C 89% 3.5 mph SE5.6 kmh SE 5.8 mph9.3 kmh 30.08 in1018.6 mb - 0.00 in0.0 mm 0.00 in0.0 mm
02:10 AM 70.5°F21.4°C 67.1°F19.5°C 89% 3.5 mph S5.6 kmh S 5.8 mph9.3 kmh 30.08 in1018.6 mb - 0.00 in0.0 mm 0.00 in0.0 mm
02:20 AM 70.1°F21.2°C 67.0°F19.4°C 90% 2.3 mph ESE3.7 kmh ESE 3.5 mph5.6 kmh 30.08 in1018.6 mb - 0.00 in0.0 mm 0.00 in0.0 mm
02:30 AM 70.2°F21.2°C 67.1°F19.5°C 90% 2.3 mph SE3.7 kmh SE 3.5 mph5.6 kmh 30.07 in1018.3 mb - 0.00 in0.0 mm 0.00 in0.0 mm
02:40 AM 70.2°F21.2°C 67.1°F19.5°C 90% 2.3 mph SSE3.7 kmh SSE 6.9 mph11.1 kmh 30.07 in1018.3 mb - 0.00 in0.0 mm 0.00 in0.0 mm
02:50 AM 70.2°F21.2°C 67.1°F19.5°C 90% 2.3 mph SE3.7 kmh SE 3.5 mph5.6 kmh 30.07 in1018.3 mb - 0.00 in0.0 mm 0.00 in0.0 mm
03:00 AM 70.2°F21.2°C 67.1°F19.5°C 90% 3.5 mph SE5.6 kmh SE 3.5 mph5.6 kmh 30.07 in1018.3 mb - 0.00 in0.0 mm 0.00 in0.0 mm
03:10 AM 70.3°F21.3°C 67.2°F19.6°C 90% Calm Calm 3.5 mph5.6 kmh 30.07 in1018.3 mb - 0.00 in0.0 mm 0.00 in0.0 mm
03:20 AM 70.1°F21.2°C 67.0°F19.4°C 90% 2.3 mph S3.7 kmh S 3.5 mph5.6 kmh 30.08 in1018.6 mb - 0.00 in0.0 mm 0.00 in0.0 mm
03:30 AM 69.6°F20.9°C 66.9°F19.4°C 91% 2.3 mph S3.7 kmh S 3.5 mph5.6 kmh 30.08 in1018.6 mb - 0.00 in0.0 mm 0.00 in0.0 mm
03:40 AM 69.8°F21.0°C 67.1°F19.5°C 91% 2.3 mph S3.7 kmh S 4.6 mph7.4 kmh 30.08 in1018.6 mb - 0.00 in0.0 mm 0.00 in0.0 mm
03:50 AM 70.1°F21.2°C 67.7°F19.8°C 92% 3.5 mph S5.6 kmh S 3.5 mph5.6 kmh 30.08 in1018.6 mb - 0.00 in0.0 mm 0.00 in0.0 mm
04:00 AM 70.3°F21.3°C 67.9°F19.9°C 92% 2.3 mph S3.7 kmh S 3.5 mph5.6 kmh 30.08 in1018.6 mb - 0.00 in0.0 mm 0.00 in0.0 mm
04:10 AM 70.3°F21.3°C 67.9°F19.9°C 92% 3.5 mph S5.6 kmh S 4.6 mph7.4 kmh 30.08 in1018.6 mb - 0.00 in0.0 mm 0.00 in0.0 mm
04:20 AM 70.4°F21.3°C 67.9°F19.9°C 92% 3.5 mph SE5.6 kmh SE 4.6 mph7.4 kmh 30.08 in1018.6 mb - 0.00 in0.0 mm 0.00 in0.0 mm
04:30 AM 70.9°F21.6°C 68.5°F20.3°C 92% 4.6 mph SSE7.4 kmh SSE 6.9 mph11.1 kmh 30.09 in1019.0 mb - 0.00 in0.0 mm 0.00 in0.0 mm
04:40 AM 71.2°F21.8°C 69.1°F20.6°C 93% 5.8 mph SE9.3 kmh SE 11.5 mph18.5 kmh 30.08 in1018.6 mb - 0.02 in0.5 mm 0.02 in0.5 mm
04:50 AM 71.2°F21.8°C 69.1°F20.6°C 93% 2.3 mph SSE3.7 kmh SSE 3.5 mph5.6 kmh 30.09 in1019.0 mb - 0.02 in0.5 mm 0.03 in0.8 mm
05:00 AM 71.2°F21.8°C 69.1°F20.6°C 93% 4.6 mph SE7.4 kmh SE 8.1 mph13.0 kmh 30.09 in1019.0 mb - 0.00 in0.0 mm 0.03 in0.8 mm
05:10 AM 71.1°F21.7°C 69.0°F20.6°C 93% 3.5 mph SE5.6 kmh SE 5.8 mph9.3 kmh 30.09 in1019.0 mb - 0.00 in0.0 mm 0.03 in0.8 mm
05:20 AM 70.9°F21.6°C 68.8°F20.4°C 93% 3.5 mph SE5.6 kmh SE 4.6 mph7.4 kmh 30.09 in1019.0 mb - 0.00 in0.0 mm 0.03 in0.8 mm
05:30 AM 70.7°F21.5°C 68.6°F20.3°C 93% 3.5 mph SE5.6 kmh SE 4.6 mph7.4 kmh 30.09 in1019.0 mb - 0.00 in0.0 mm 0.03 in0.8 mm
05:40 AM 70.6°F21.4°C 68.5°F20.3°C 93% 5.8 mph ESE9.3 kmh ESE 10.4 mph16.7 kmh 30.10 in1019.3 mb - 0.01 in0.3 mm 0.04 in1.0 mm
05:50 AM 70.5°F21.4°C 68.4°F20.2°C 93% 8.1 mph ESE13.0 kmh ESE 11.5 mph18.5 kmh 30.10 in1019.3 mb - 0.01 in0.3 mm 0.04 in1.0 mm
06:00 AM 70.2°F21.2°C 68.4°F20.2°C 94% 4.6 mph E7.4 kmh E 6.9 mph11.1 kmh 30.10 in1019.3 mb - 0.02 in0.5 mm 0.06 in1.5 mm
06:10 AM 70.2°F21.2°C 68.4°F20.2°C 94% 2.3 mph ESE3.7 kmh ESE 3.5 mph5.6 kmh 30.10 in1019.3 mb - 0.02 in0.5 mm 0.08 in2.0 mm
06:20 AM 70.2°F21.2°C 68.4°F20.2°C 94% 3.5 mph ESE5.6 kmh ESE 3.5 mph5.6 kmh 30.10 in1019.3 mb - 0.00 in0.0 mm 0.08 in2.0 mm
06:30 AM 70.3°F21.3°C 68.5°F20.3°C 94% 2.3 mph SE3.7 kmh SE 3.5 mph5.6 kmh 30.11 in1019.6 mb - 0.00 in0.0 mm 0.08 in2.0 mm
06:40 AM 70.3°F21.3°C 68.5°F20.3°C 94% 1.2 mph SSE1.9 kmh SSE 2.3 mph3.7 kmh 30.11 in1019.6 mb - 0.00 in0.0 mm 0.08 in2.0 mm
06:50 AM 70.2°F21.2°C 68.7°F20.4°C 95% Calm Calm -- 30.11 in1019.6 mb - 0.00 in0.0 mm 0.08 in2.0 mm
07:00 AM 70.3°F21.3°C 68.8°F20.4°C 95% 2.3 mph SE3.7 kmh SE 2.3 mph3.7 kmh 30.12 in1020.0 mb - 0.00 in0.0 mm 0.08 in2.0 mm
07:10 AM 70.3°F21.3°C 68.8°F20.4°C 95% 4.6 mph S7.4 kmh S 5.8 mph9.3 kmh 30.12 in1020.0 mb - 0.02 in0.5 mm 0.09 in2.3 mm
07:20 AM 70.4°F21.3°C 68.6°F20.3°C 94% 4.6 mph SSE7.4 kmh SSE 6.9 mph11.1 kmh 30.12 in1020.0 mb - 0.00 in0.0 mm 0.09 in2.3 mm
07:30 AM 70.5°F21.4°C 68.7°F20.4°C 94% 5.8 mph SE9.3 kmh SE 10.4 mph16.7 kmh 30.13 in1020.3 mb - 0.00 in0.0 mm 0.09 in2.3 mm
07:40 AM 70.3°F21.3°C 68.5°F20.3°C 94% 4.6 mph SSE7.4 kmh SSE 8.1 mph13.0 kmh 30.13 in1020.3 mb - 0.03 in0.8 mm 0.13 in3.3 mm
07:50 AM 70.8°F21.6°C 69.0°F20.6°C 94% 3.5 mph SE5.6 kmh SE 3.5 mph5.6 kmh 30.14 in1020.7 mb - 0.00 in0.0 mm 0.13 in3.3 mm
08:00 AM 71.2°F21.8°C 69.1°F20.6°C 93% 3.5 mph SE5.6 kmh SE 3.5 mph5.6 kmh 30.14 in1020.7 mb - 0.00 in0.0 mm 0.13 in3.3 mm
08:10 AM 71.5°F21.9°C 69.4°F20.8°C 93% 2.3 mph SE3.7 kmh SE 3.5 mph5.6 kmh 30.14 in1020.7 mb - 0.00 in0.0 mm 0.13 in3.3 mm
08:20 AM 71.9°F22.2°C 69.8°F21.0°C 93% 2.3 mph ESE3.7 kmh ESE 5.8 mph9.3 kmh 30.14 in1020.7 mb - 0.00 in0.0 mm 0.13 in3.3 mm
08:30 AM 72.4°F22.4°C 70.2°F21.2°C 93% 3.5 mph ESE5.6 kmh ESE 4.6 mph7.4 kmh 30.15 in1021.0 mb - 0.00 in0.0 mm 0.13 in3.3 mm
08:40 AM 72.7°F22.6°C 70.2°F21.2°C 92% 3.5 mph E5.6 kmh E 6.9 mph11.1 kmh 30.15 in1021.0 mb - 0.00 in0.0 mm 0.13 in3.3 mm
08:50 AM 73.7°F23.2°C 70.9°F21.6°C 91% 4.6 mph E7.4 kmh E 11.5 mph18.5 kmh 30.15 in1021.0 mb - 0.00 in0.0 mm 0.13 in3.3 mm
09:00 AM 74.2°F23.4°C 70.5°F21.4°C 88% 3.5 mph E5.6 kmh E 4.6 mph7.4 kmh 30.16 in1021.3 mb - 0.00 in0.0 mm 0.13 in3.3 mm
09:10 AM 75.2°F24.0°C 70.7°F21.5°C 86% 5.8 mph E9.3 kmh E 9.2 mph14.8 kmh 30.16 in1021.3 mb - 0.00 in0.0 mm 0.13 in3.3 mm
09:20 AM 75.2°F24.0°C 70.0°F21.1°C 84% 9.2 mph E14.8 kmh E 13.8 mph22.2 kmh 30.16 in1021.3 mb - 0.00 in0.0 mm 0.13 in3.3 mm
09:30 AM 75.7°F24.3°C 70.2°F21.2°C 83% 9.2 mph ESE14.8 kmh ESE 13.8 mph22.2 kmh 30.16 in1021.3 mb - 0.00 in0.0 mm 0.13 in3.3 mm
09:40 AM 75.6°F24.2°C 69.7°F20.9°C 82% 6.9 mph ESE11.1 kmh ESE 11.5 mph18.5 kmh 30.16 in1021.3 mb - 0.00 in0.0 mm 0.13 in3.3 mm
09:50 AM 75.2°F24.0°C 68.6°F20.3°C 80% 8.1 mph E13.0 kmh E 10.4 mph16.7 kmh 30.16 in1021.3 mb - 0.00 in0.0 mm 0.13 in3.3 mm
10:00 AM 75.4°F24.1°C 68.8°F20.4°C 80% 9.2 mph ESE14.8 kmh ESE 12.7 mph20.4 kmh 30.16 in1021.3 mb - 0.00 in0.0 mm 0.13 in3.3 mm
10:10 AM 75.4°F24.1°C 68.4°F20.2°C 79% 4.6 mph ESE7.4 kmh ESE 8.1 mph13.0 kmh 30.16 in1021.3 mb - 0.00 in0.0 mm 0.13 in3.3 mm
10:20 AM 75.7°F24.3°C 69.1°F20.6°C 80% 8.1 mph SE13.0 kmh SE 11.5 mph18.5 kmh 30.16 in1021.3 mb - 0.00 in0.0 mm 0.13 in3.3 mm
10:30 AM 76.6°F24.8°C 69.6°F20.9°C 79% 9.2 mph E14.8 kmh E 13.8 mph22.2 kmh 30.16 in1021.3 mb - 0.00 in0.0 mm 0.13 in3.3 mm
10:40 AM 77.3°F25.2°C 69.9°F21.1°C 78% 8.1 mph E13.0 kmh E 13.8 mph22.2 kmh 30.16 in1021.3 mb - 0.00 in0.0 mm 0.13 in3.3 mm
10:50 AM 76.9°F24.9°C 69.5°F20.8°C 78% 8.1 mph E13.0 kmh E 16.1 mph25.9 kmh 30.16 in1021.3 mb - 0.00 in0.0 mm 0.13 in3.3 mm
11:00 AM 77.4°F25.2°C 69.3°F20.7°C 76% 6.9 mph E11.1 kmh E 10.4 mph16.7 kmh 30.15 in1021.0 mb - 0.00 in0.0 mm 0.13 in3.3 mm
11:10 AM 77.2°F25.1°C 68.7°F20.4°C 75% 6.9 mph E11.1 kmh E 12.7 mph20.4 kmh 30.15 in1021.0 mb - 0.00 in0.0 mm 0.13 in3.3 mm
11:20 AM 77.0°F25.0°C 68.5°F20.3°C 75% 5.8 mph E9.3 kmh E 11.5 mph18.5 kmh 30.15 in1021.0 mb - 0.00 in0.0 mm 0.13 in3.3 mm
11:30 AM 77.4°F25.2°C 69.3°F20.7°C 76% 5.8 mph SE9.3 kmh SE 11.5 mph18.5 kmh 30.15 in1021.0 mb - 0.00 in0.0 mm 0.13 in3.3 mm
11:40 AM 77.6°F25.3°C 68.3°F20.2°C 73% 6.9 mph E11.1 kmh E 12.7 mph20.4 kmh 30.15 in1021.0 mb - 0.00 in0.0 mm 0.13 in3.3 mm
11:50 AM 77.2°F25.1°C 68.3°F20.2°C 74% 6.9 mph E11.1 kmh E 12.7 mph20.4 kmh 30.14 in1020.7 mb - 0.00 in0.0 mm 0.13 in3.3 mm
12:00 PM 76.5°F24.7°C 68.8°F20.4°C 77% 5.8 mph ESE9.3 kmh ESE 13.8 mph22.2 kmh 30.14 in1020.7 mb - 0.00 in0.0 mm 0.13 in3.3 mm
12:10 PM 76.4°F24.7°C 68.7°F20.4°C 77% 6.9 mph E11.1 kmh E 11.5 mph18.5 kmh 30.14 in1020.7 mb - 0.00 in0.0 mm 0.13 in3.3 mm
12:20 PM 76.5°F24.7°C 68.3°F20.2°C 76% 8.1 mph E13.0 kmh E 11.5 mph18.5 kmh 30.14 in1020.7 mb - 0.00 in0.0 mm 0.13 in3.3 mm
12:30 PM 76.1°F24.5°C 68.3°F20.2°C 77% 5.8 mph E9.3 kmh E 8.1 mph13.0 kmh 30.14 in1020.7 mb - 0.00 in0.0 mm 0.13 in3.3 mm
12:40 PM 75.7°F24.3°C 67.6°F19.8°C 76% 6.9 mph ESE11.1 kmh ESE 10.4 mph16.7 kmh 30.13 in1020.3 mb - 0.00 in0.0 mm 0.13 in3.3 mm
12:50 PM 76.8°F24.9°C 68.3°F20.2°C 75% 8.1 mph E13.0 kmh E 11.5 mph18.5 kmh 30.13 in1020.3 mb - 0.00 in0.0 mm 0.13 in3.3 mm
01:00 PM 76.8°F24.9°C 68.3°F20.2°C 75% 4.6 mph E7.4 kmh E 9.2 mph14.8 kmh 30.13 in1020.3 mb - 0.00 in0.0 mm 0.13 in3.3 mm
01:10 PM 76.5°F24.7°C 67.2°F19.6°C 73% 6.9 mph E11.1 kmh E 11.5 mph18.5 kmh 30.13 in1020.3 mb - 0.00 in0.0 mm 0.13 in3.3 mm
01:20 PM 75.4°F24.1°C 67.3°F19.6°C 76% 6.9 mph ESE11.1 kmh ESE 6.9 mph11.1 kmh 30.12 in1020.0 mb - 0.00 in0.0 mm 0.13 in3.3 mm
01:30 PM 76.1°F24.5°C 67.6°F19.8°C 75% 6.9 mph ESE11.1 kmh ESE 16.1 mph25.9 kmh 30.12 in1020.0 mb - 0.00 in0.0 mm 0.13 in3.3 mm
01:40 PM 77.1°F25.1°C 67.4°F19.7°C 72% 6.9 mph ESE11.1 kmh ESE 13.8 mph22.2 kmh 30.12 in1020.0 mb - 0.00 in0.0 mm 0.13 in3.3 mm
01:50 PM 77.6°F25.3°C 68.7°F20.4°C 74% 5.8 mph ESE9.3 kmh ESE 11.5 mph18.5 kmh 30.11 in1019.6 mb - 0.00 in0.0 mm 0.13 in3.3 mm
02:00 PM 76.1°F24.5°C 68.4°F20.2°C 77% 3.5 mph ESE5.6 kmh ESE 9.2 mph14.8 kmh 30.11 in1019.6 mb - 0.01 in0.3 mm 0.13 in3.3 mm
02:10 PM 76.0°F24.4°C 67.9°F19.9°C 76% 8.1 mph ESE13.0 kmh ESE 21.9 mph35.2 kmh 30.11 in1019.6 mb - 0.00 in0.0 mm 0.13 in3.3 mm
02:20 PM 75.7°F24.3°C 67.6°F19.8°C 76% 6.9 mph SE11.1 kmh SE 6.9 mph11.1 kmh 30.11 in1019.6 mb - 0.00 in0.0 mm 0.13 in3.3 mm
02:30 PM 75.6°F24.2°C 67.5°F19.7°C 76% 5.8 mph ESE9.3 kmh ESE 17.3 mph27.8 kmh 30.11 in1019.6 mb - 0.00 in0.0 mm 0.13 in3.3 mm
02:40 PM 76.3°F24.6°C 67.8°F19.9°C 75% 9.2 mph SE14.8 kmh SE 9.2 mph14.8 kmh 30.11 in1019.6 mb - 0.00 in0.0 mm 0.13 in3.3 mm
02:50 PM 76.6°F24.8°C 67.7°F19.8°C 74% 6.9 mph SE11.1 kmh SE 11.5 mph18.5 kmh 30.11 in1019.6 mb - 0.00 in0.0 mm 0.13 in3.3 mm
03:00 PM 75.8°F24.3°C 66.9°F19.4°C 74% 5.8 mph E9.3 kmh E 10.4 mph16.7 kmh 30.11 in1019.6 mb - 0.00 in0.0 mm 0.13 in3.3 mm
03:10 PM 75.5°F24.2°C 67.1°F19.5°C 75% 4.6 mph ESE7.4 kmh ESE 6.9 mph11.1 kmh 30.12 in1020.0 mb - 0.00 in0.0 mm 0.13 in3.3 mm
03:20 PM 76.2°F24.6°C 66.9°F19.4°C 73% 10.4 mph SE16.7 kmh SE 15.0 mph24.1 kmh 30.11 in1019.6 mb - 0.00 in0.0 mm 0.13 in3.3 mm
03:30 PM 76.3°F24.6°C 67.0°F19.4°C 73% 8.1 mph ESE13.0 kmh ESE 11.5 mph18.5 kmh 30.12 in1020.0 mb - 0.00 in0.0 mm 0.13 in3.3 mm
03:40 PM 76.3°F24.6°C 67.0°F19.4°C 73% 6.9 mph E11.1 kmh E 10.4 mph16.7 kmh 30.12 in1020.0 mb - 0.00 in0.0 mm 0.13 in3.3 mm
03:50 PM 76.3°F24.6°C 67.0°F19.4°C 73% 9.2 mph ESE14.8 kmh ESE 12.7 mph20.4 kmh 30.11 in1019.6 mb - 0.00 in0.0 mm 0.13 in3.3 mm
04:00 PM 76.0°F24.4°C 66.7°F19.3°C 73% 6.9 mph ESE11.1 kmh ESE 9.2 mph14.8 kmh 30.11 in1019.6 mb - 0.00 in0.0 mm 0.13 in3.3 mm
04:11 PM 75.9°F24.4°C 66.6°F19.2°C 73% 9.2 mph ESE14.8 kmh ESE 12.7 mph20.4 kmh 30.11 in1019.6 mb - 0.00 in0.0 mm 0.13 in3.3 mm
04:20 PM 75.7°F24.3°C 66.4°F19.1°C 73% 6.9 mph ESE11.1 kmh ESE 10.4 mph16.7 kmh 30.11 in1019.6 mb - 0.00 in0.0 mm 0.13 in3.3 mm
04:30 PM 75.5°F24.2°C 66.2°F19.0°C 73% 8.1 mph ESE13.0 kmh ESE 15.0 mph24.1 kmh 30.11 in1019.6 mb - 0.00 in0.0 mm 0.13 in3.3 mm
04:40 PM 75.3°F24.1°C 66.5°F19.2°C 74% 4.6 mph E7.4 kmh E 12.7 mph20.4 kmh 30.11 in1019.6 mb - 0.00 in0.0 mm 0.13 in3.3 mm
04:50 PM 75.1°F23.9°C 66.2°F19.0°C 74% 4.6 mph ESE7.4 kmh ESE 6.9 mph11.1 kmh 30.11 in1019.6 mb - 0.00 in0.0 mm 0.13 in3.3 mm
05:00 PM 75.0°F23.9°C 65.8°F18.8°C 73% 4.6 mph ESE7.4 kmh ESE 4.6 mph7.4 kmh 30.11 in1019.6 mb - 0.00 in0.0 mm 0.13 in3.3 mm
05:10 PM 74.6°F23.7°C 65.4°F18.6°C 73% 5.8 mph SE9.3 kmh SE 10.4 mph16.7 kmh 30.12 in1020.0 mb - 0.00 in0.0 mm 0.13 in3.3 mm
05:20 PM 74.3°F23.5°C 65.5°F18.6°C 74% 4.6 mph SE7.4 kmh SE 11.5 mph18.5 kmh 30.12 in1020.0 mb - 0.00 in0.0 mm 0.13 in3.3 mm
05:30 PM 73.9°F23.3°C 65.1°F18.4°C 74% 4.6 mph ESE7.4 kmh ESE 9.2 mph14.8 kmh 30.12 in1020.0 mb - 0.00 in0.0 mm 0.13 in3.3 mm
05:40 PM 73.6°F23.1°C 65.1°F18.4°C 75% 4.6 mph ESE7.4 kmh ESE 10.4 mph16.7 kmh 30.12 in1020.0 mb - 0.00 in0.0 mm 0.13 in3.3 mm
05:50 PM 73.2°F22.9°C 65.2°F18.4°C 76% 3.5 mph SE5.6 kmh SE 6.9 mph11.1 kmh 30.12 in1020.0 mb - 0.00 in0.0 mm 0.13 in3.3 mm
06:00 PM 72.8°F22.7°C 65.2°F18.4°C 77% 2.3 mph SE3.7 kmh SE 4.6 mph7.4 kmh 30.13 in1020.3 mb - 0.00 in0.0 mm 0.13 in3.3 mm
06:10 PM 72.4°F22.4°C 65.2°F18.4°C 78% 2.3 mph SE3.7 kmh SE 4.6 mph7.4 kmh 30.13 in1020.3 mb - 0.00 in0.0 mm 0.13 in3.3 mm
06:20 PM 72.2°F22.3°C 65.0°F18.3°C 78% 1.2 mph ESE1.9 kmh ESE 4.6 mph7.4 kmh 30.13 in1020.3 mb - 0.00 in0.0 mm 0.13 in3.3 mm
06:30 PM 72.1°F22.3°C 65.2°F18.4°C 79% 2.3 mph SE3.7 kmh SE 4.6 mph7.4 kmh 30.14 in1020.7 mb - 0.00 in0.0 mm 0.13 in3.3 mm
06:40 PM 71.9°F22.2°C 65.0°F18.3°C 79% 2.3 mph SE3.7 kmh SE 4.6 mph7.4 kmh 30.14 in1020.7 mb - 0.00 in0.0 mm 0.13 in3.3 mm
06:50 PM 71.7°F22.1°C 64.9°F18.3°C 79% 1.2 mph ESE1.9 kmh ESE 4.6 mph7.4 kmh 30.14 in1020.7 mb - 0.00 in0.0 mm 0.13 in3.3 mm
07:00 PM 71.6°F22.0°C 64.7°F18.2°C 79% 3.5 mph ESE5.6 kmh ESE 5.8 mph9.3 kmh 30.14 in1020.7 mb - 0.00 in0.0 mm 0.13 in3.3 mm
07:10 PM 71.4°F21.9°C 64.9°F18.3°C 80% 3.5 mph SE5.6 kmh SE 9.2 mph14.8 kmh 30.14 in1020.7 mb - 0.00 in0.0 mm 0.13 in3.3 mm
07:20 PM 71.2°F21.8°C 64.7°F18.2°C 80% 4.6 mph ESE7.4 kmh ESE 5.8 mph9.3 kmh 30.14 in1020.7 mb - 0.00 in0.0 mm 0.13 in3.3 mm
07:30 PM 71.2°F21.8°C 65.1°F18.4°C 81% 3.5 mph SE5.6 kmh SE 5.8 mph9.3 kmh 30.15 in1021.0 mb - 0.00 in0.0 mm 0.13 in3.3 mm
07:40 PM 71.2°F21.8°C 64.7°F18.2°C 80% 3.5 mph SE5.6 kmh SE 6.9 mph11.1 kmh 30.15 in1021.0 mb - 0.00 in0.0 mm 0.13 in3.3 mm
07:50 PM 71.1°F21.7°C 65.0°F18.3°C 81% 2.3 mph SE3.7 kmh SE 3.5 mph5.6 kmh 30.15 in1021.0 mb - 0.00 in0.0 mm 0.13 in3.3 mm
08:00 PM 70.9°F21.6°C 64.8°F18.2°C 81% 2.3 mph SE3.7 kmh SE 6.9 mph11.1 kmh 30.15 in1021.0 mb - 0.00 in0.0 mm 0.13 in3.3 mm
08:10 PM 70.6°F21.4°C 64.5°F18.1°C 81% 3.5 mph SE5.6 kmh SE 8.1 mph13.0 kmh 30.16 in1021.3 mb - 0.00 in0.0 mm 0.13 in3.3 mm
08:20 PM 70.4°F21.3°C 64.7°F18.2°C 82% 2.3 mph ESE3.7 kmh ESE 8.1 mph13.0 kmh 30.16 in1021.3 mb - 0.00 in0.0 mm 0.13 in3.3 mm
08:30 PM 70.4°F21.3°C 64.3°F17.9°C 81% 3.5 mph ESE5.6 kmh ESE 8.1 mph13.0 kmh 30.16 in1021.3 mb - 0.00 in0.0 mm 0.13 in3.3 mm
08:40 PM 70.6°F21.4°C 64.5°F18.1°C 81% Calm Calm 6.9 mph11.1 kmh 30.16 in1021.3 mb - 0.00 in0.0 mm 0.13 in3.3 mm
08:50 PM 70.7°F21.5°C 64.2°F17.9°C 80% 5.8 mph SE9.3 kmh SE 8.1 mph13.0 kmh 30.16 in1021.3 mb - 0.00 in0.0 mm 0.13 in3.3 mm
09:00 PM 70.7°F21.5°C 64.2°F17.9°C 80% Calm Calm 3.5 mph5.6 kmh 30.16 in1021.3 mb - 0.00 in0.0 mm 0.13 in3.3 mm
09:10 PM 70.7°F21.5°C 64.2°F17.9°C 80% 3.5 mph SE5.6 kmh SE 9.2 mph14.8 kmh 30.16 in1021.3 mb - 0.00 in0.0 mm 0.13 in3.3 mm
09:20 PM 70.7°F21.5°C 64.2°F17.9°C 80% 4.6 mph SE7.4 kmh SE 8.1 mph13.0 kmh 30.17 in1021.7 mb - 0.00 in0.0 mm 0.13 in3.3 mm
09:30 PM 70.5°F21.4°C 64.0°F17.8°C 80% 3.5 mph SE5.6 kmh SE 6.9 mph11.1 kmh 30.16 in1021.3 mb - 0.00 in0.0 mm 0.13 in3.3 mm
09:40 PM 70.3°F21.3°C 63.8°F17.7°C 80% Calm Calm -- 30.16 in1021.3 mb - 0.00 in0.0 mm 0.13 in3.3 mm
09:50 PM 70.1°F21.2°C 64.0°F17.8°C 81% 1.2 mph ESE1.9 kmh ESE 6.9 mph11.1 kmh 30.16 in1021.3 mb - 0.00 in0.0 mm 0.13 in3.3 mm
10:00 PM 69.9°F21.1°C 63.8°F17.7°C 81% 3.5 mph SE5.6 kmh SE 8.1 mph13.0 kmh 30.16 in1021.3 mb - 0.00 in0.0 mm 0.13 in3.3 mm
10:10 PM 69.9°F21.1°C 63.4°F17.4°C 80% 3.5 mph SE5.6 kmh SE 6.9 mph11.1 kmh 30.16 in1021.3 mb - 0.00 in0.0 mm 0.13 in3.3 mm
10:20 PM 69.8°F21.0°C 63.4°F17.4°C 80% 3.5 mph SE5.6 kmh SE 5.8 mph9.3 kmh 30.16 in1021.3 mb - 0.00 in0.0 mm 0.13 in3.3 mm
10:30 PM 69.7°F20.9°C 63.3°F17.4°C 80% 4.6 mph SE7.4 kmh SE 6.9 mph11.1 kmh 30.16 in1021.3 mb - 0.00 in0.0 mm 0.13 in3.3 mm
10:40 PM 69.5°F20.8°C 63.4°F17.4°C 81% 4.6 mph SE7.4 kmh SE 10.4 mph16.7 kmh 30.16 in1021.3 mb - 0.00 in0.0 mm 0.13 in3.3 mm
10:50 PM 69.3°F20.7°C 63.2°F17.3°C 81% 3.5 mph SE5.6 kmh SE 6.9 mph11.1 kmh 30.16 in1021.3 mb - 0.00 in0.0 mm 0.13 in3.3 mm
11:00 PM 69.1°F20.6°C 63.0°F17.2°C 81% 2.3 mph SE3.7 kmh SE 5.8 mph9.3 kmh 30.16 in1021.3 mb - 0.00 in0.0 mm 0.13 in3.3 mm
11:10 PM 69.0°F20.6°C 63.3°F17.4°C 82% Calm Calm -- 30.16 in1021.3 mb - 0.00 in0.0 mm 0.13 in3.3 mm
11:20 PM 68.9°F20.5°C 63.2°F17.3°C 82% 1.2 mph SE1.9 kmh SE 5.8 mph9.3 kmh 30.16 in1021.3 mb - 0.00 in0.0 mm 0.13 in3.3 mm
11:30 PM 68.8°F20.4°C 63.1°F17.3°C 82% 4.6 mph SE7.4 kmh SE 4.6 mph7.4 kmh 30.16 in1021.3 mb - 0.00 in0.0 mm 0.13 in3.3 mm
11:40 PM 69.2°F20.7°C 63.4°F17.4°C 82% 5.8 mph SE9.3 kmh SE 8.1 mph13.0 kmh 30.16 in1021.3 mb - 0.00 in0.0 mm 0.13 in3.3 mm
11:50 PM 69.7°F20.9°C 63.6°F17.6°C 81% 8.1 mph SE13.0 kmh SE 11.5 mph18.5 kmh 30.16 in1021.3 mb - 0.00 in0.0 mm 0.13 in3.3 mm